sensor_id;sensor_type;location;lat;lon;timestamp;pressure;altitude;pressure_sealevel;temperature;humidity
48778;BME280;34578;0.000;0.000;2023-02-13T00:02:27;98327.31;;;16.28;52.00
48778;BME280;34578;0.000;0.000;2023-02-13T00:07:28;98322.25;;;16.27;51.87
48778;BME280;34578;0.000;0.000;2023-02-13T00:12:28;98323.19;;;16.30;51.72
48778;BME280;34578;0.000;0.000;2023-02-13T00:17:28;98324.94;;;16.31;51.18
48778;BME280;34578;0.000;0.000;2023-02-13T00:22:29;98329.09;;;16.31;51.78
48778;BME280;34578;0.000;0.000;2023-02-13T00:27:30;98328.22;;;16.30;52.00
48778;BME280;34578;0.000;0.000;2023-02-13T00:32:30;98334.06;;;16.28;51.77
48778;BME280;34578;0.000;0.000;2023-02-13T00:37:32;98333.19;;;16.27;52.07
48778;BME280;34578;0.000;0.000;2023-02-13T00:42:32;98339.97;;;16.28;51.77
48778;BME280;34578;0.000;0.000;2023-02-13T00:47:33;98350.06;;;16.28;52.21
48778;BME280;34578;0.000;0.000;2023-02-13T00:52:33;98350.06;;;16.28;51.69
48778;BME280;34578;0.000;0.000;2023-02-13T00:57:33;98349.22;;;16.28;52.29
48778;BME280;34578;0.000;0.000;2023-02-13T01:02:34;98348.44;;;16.30;53.01
48778;BME280;34578;0.000;0.000;2023-02-13T01:07:35;98355.13;;;16.28;53.31
48778;BME280;34578;0.000;0.000;2023-02-13T01:12:35;98345.25;;;16.34;52.02
48778;BME280;34578;0.000;0.000;2023-02-13T01:17:36;98356.00;;;16.29;52.16
48778;BME280;34578;0.000;0.000;2023-02-13T01:22:39;98349.00;;;16.22;52.39
48778;BME280;34578;0.000;0.000;2023-02-13T01:27:40;98352.50;;;16.25;52.04
48778;BME280;34578;0.000;0.000;2023-02-13T01:32:41;98349.97;;;16.25;52.69
48778;BME280;34578;0.000;0.000;2023-02-13T01:37:42;98352.44;;;16.24;52.43
48778;BME280;34578;0.000;0.000;2023-02-13T01:42:43;98349.88;;;16.22;52.10
48778;BME280;34578;0.000;0.000;2023-02-13T01:47:48;98347.34;;;16.22;52.20
48778;BME280;34578;0.000;0.000;2023-02-13T01:52:58;98350.72;;;16.23;52.28
48778;BME280;34578;0.000;0.000;2023-02-13T01:58:12;98355.78;;;16.23;52.23
48778;BME280;34578;0.000;0.000;2023-02-13T02:03:20;98357.34;;;16.19;52.61
48778;BME280;34578;0.000;0.000;2023-02-13T02:08:23;98347.22;;;16.19;52.26
48778;BME280;34578;0.000;0.000;2023-02-13T02:13:26;98343.97;;;16.22;52.06
48778;BME280;34578;0.000;0.000;2023-02-13T02:18:27;98347.50;;;16.27;52.95
48778;BME280;34578;0.000;0.000;2023-02-13T02:24:10;98335.72;;;16.27;53.20
48778;BME280;34578;0.000;0.000;2023-02-13T02:40:10;98326.34;;;16.23;51.95
48778;BME280;34578;0.000;0.000;2023-02-13T02:45:49;98321.28;;;16.23;52.36
48778;BME280;34578;0.000;0.000;2023-02-13T02:56:41;98317.63;;;16.15;52.18
48778;BME280;34578;0.000;0.000;2023-02-13T03:01:44;98325.53;;;16.24;51.89
48778;BME280;34578;0.000;0.000;2023-02-13T03:07:07;98325.47;;;16.23;52.08
48778;BME280;34578;0.000;0.000;2023-02-13T03:12:10;98331.25;;;16.20;52.46
48778;BME280;34578;0.000;0.000;2023-02-13T03:17:30;98340.56;;;16.21;51.99
48778;BME280;34578;0.000;0.000;2023-02-13T03:28:21;98340.56;;;16.21;52.25
48778;BME280;34578;0.000;0.000;2023-02-13T03:34:04;98342.31;;;16.22;51.89
48778;BME280;34578;0.000;0.000;2023-02-13T03:39:10;98341.66;;;16.28;52.45
48778;BME280;34578;0.000;0.000;2023-02-13T03:44:29;98339.94;;;16.27;53.21
48778;BME280;34578;0.000;0.000;2023-02-13T03:49:35;98348.41;;;16.29;51.78
48778;BME280;34578;0.000;0.000;2023-02-13T03:54:59;98344.84;;;16.22;52.27
48778;BME280;34578;0.000;0.000;2023-02-13T04:00:19;98349.00;;;16.22;52.20
48778;BME280;34578;0.000;0.000;2023-02-13T04:05:24;98353.97;;;16.19;52.66
48778;BME280;34578;0.000;0.000;2023-02-13T04:10:27;98353.09;;;16.18;52.34
48778;BME280;34578;0.000;0.000;2023-02-13T04:15:39;98355.63;;;16.18;52.53
48778;BME280;34578;0.000;0.000;2023-02-13T04:20:41;98356.44;;;16.17;52.07
48778;BME280;34578;0.000;0.000;2023-02-13T04:25:45;98355.56;;;16.17;52.07
48778;BME280;34578;0.000;0.000;2023-02-13T04:30:46;98360.63;;;16.17;52.19
48778;BME280;34578;0.000;0.000;2023-02-13T04:35:47;98352.19;;;16.16;51.99
48778;BME280;34578;0.000;0.000;2023-02-13T04:40:47;98361.41;;;16.14;52.49
48778;BME280;34578;0.000;0.000;2023-02-13T04:45:48;98354.59;;;16.13;52.47
48778;BME280;34578;0.000;0.000;2023-02-13T04:50:49;98361.50;;;16.17;52.57
48778;BME280;34578;0.000;0.000;2023-02-13T04:55:49;98354.13;;;16.23;52.70
48778;BME280;34578;0.000;0.000;2023-02-13T05:00:50;98363.44;;;16.24;53.34
48778;BME280;34578;0.000;0.000;2023-02-13T05:05:51;98365.97;;;16.26;52.59
48778;BME280;34578;0.000;0.000;2023-02-13T05:10:51;98365.38;;;16.31;51.42
48778;BME280;34578;0.000;0.000;2023-02-13T05:15:51;98362.88;;;16.33;51.14
48778;BME280;34578;0.000;0.000;2023-02-13T05:20:52;98370.50;;;16.34;51.24
48778;BME280;34578;0.000;0.000;2023-02-13T05:26:11;98379.00;;;16.36;51.49
48778;BME280;34578;0.000;0.000;2023-02-13T05:31:11;98385.81;;;16.37;50.97
48778;BME280;34578;0.000;0.000;2023-02-13T05:36:12;98378.16;;;16.36;51.25
48778;BME280;34578;0.000;0.000;2023-02-13T05:41:12;98380.00;;;16.40;50.70
48778;BME280;34578;0.000;0.000;2023-02-13T05:46:12;98389.09;;;16.36;50.92
48778;BME280;34578;0.000;0.000;2023-02-13T05:51:13;98386.50;;;16.33;50.41
48778;BME280;34578;0.000;0.000;2023-02-13T05:56:13;98387.31;;;16.32;50.36
48778;BME280;34578;0.000;0.000;2023-02-13T06:01:14;98386.56;;;16.35;50.54
48778;BME280;34578;0.000;0.000;2023-02-13T06:06:14;98390.50;;;16.28;49.73
48778;BME280;34578;0.000;0.000;2023-02-13T06:11:15;98396.47;;;16.30;50.60
48778;BME280;34578;0.000;0.000;2023-02-13T06:16:15;98389.84;;;16.34;50.29
48778;BME280;34578;0.000;0.000;2023-02-13T06:21:16;98397.63;;;16.38;51.00
48778;BME280;34578;0.000;0.000;2023-02-13T06:26:18;98404.28;;;16.36;50.22
48778;BME280;34578;0.000;0.000;2023-02-13T06:31:19;98404.25;;;15.67;44.68
48778;BME280;34578;0.000;0.000;2023-02-13T06:36:19;98404.38;;;15.92;47.68
48778;BME280;34578;0.000;0.000;2023-02-13T06:41:20;98403.06;;;16.03;48.13
48778;BME280;34578;0.000;0.000;2023-02-13T06:46:20;98401.69;;;16.11;48.90
48778;BME280;34578;0.000;0.000;2023-02-13T06:51:20;98400.19;;;16.16;48.31
48778;BME280;34578;0.000;0.000;2023-02-13T06:56:21;98405.25;;;16.16;49.11
48778;BME280;34578;0.000;0.000;2023-02-13T07:01:21;98402.78;;;16.18;49.25
48778;BME280;34578;0.000;0.000;2023-02-13T07:06:22;98407.72;;;16.15;49.65
48778;BME280;34578;0.000;0.000;2023-02-13T07:11:23;98393.38;;;16.14;49.96
48778;BME280;34578;0.000;0.000;2023-02-13T07:16:24;98403.53;;;16.15;49.79
48778;BME280;34578;0.000;0.000;2023-02-13T07:21:24;98411.94;;;16.14;49.99
48778;BME280;34578;0.000;0.000;2023-02-13T07:26:25;98412.78;;;16.15;49.49
48778;BME280;34578;0.000;0.000;2023-02-13T07:31:25;98416.97;;;16.14;49.66
48778;BME280;34578;0.000;0.000;2023-02-13T07:36:27;98421.91;;;16.11;50.21
48778;BME280;34578;0.000;0.000;2023-02-13T07:41:27;98431.19;;;16.12;50.58
48778;BME280;34578;0.000;0.000;2023-02-13T07:46:27;98421.91;;;16.11;50.04
48778;BME280;34578;0.000;0.000;2023-02-13T07:51:30;98419.50;;;16.14;50.00
48778;BME280;34578;0.000;0.000;2023-02-13T07:56:30;98420.28;;;16.13;49.53
48778;BME280;34578;0.000;0.000;2023-02-13T08:01:31;98420.25;;;16.12;49.63
48778;BME280;34578;0.000;0.000;2023-02-13T08:06:31;98410.09;;;16.10;49.73
48778;BME280;34578;0.000;0.000;2023-02-13T08:11:32;98414.16;;;16.07;49.92
48778;BME280;34578;0.000;0.000;2023-02-13T08:16:52;98416.75;;;16.08;49.91
48778;BME280;34578;0.000;0.000;2023-02-13T08:21:53;98428.56;;;16.09;50.07
48778;BME280;34578;0.000;0.000;2023-02-13T08:26:55;98432.81;;;16.10;50.21
48778;BME280;34578;0.000;0.000;2023-02-13T08:31:55;98421.00;;;16.09;49.89
48778;BME280;34578;0.000;0.000;2023-02-13T08:36:55;98421.81;;;16.08;49.60
48778;BME280;34578;0.000;0.000;2023-02-13T08:41:56;98426.84;;;16.08;49.87
48778;BME280;34578;0.000;0.000;2023-02-13T08:46:56;98421.00;;;16.09;50.12
48778;BME280;34578;0.000;0.000;2023-02-13T08:51:56;98420.94;;;16.08;50.18
48778;BME280;34578;0.000;0.000;2023-02-13T08:56:57;98431.09;;;16.09;50.45
48778;BME280;34578;0.000;0.000;2023-02-13T09:01:57;98427.69;;;16.09;50.27
48778;BME280;34578;0.000;0.000;2023-02-13T09:06:57;98429.44;;;16.10;50.05
48778;BME280;34578;0.000;0.000;2023-02-13T09:11:58;98425.25;;;16.10;49.88
48778;BME280;34578;0.000;0.000;2023-02-13T09:17:00;98421.00;;;16.09;50.14
48778;BME280;34578;0.000;0.000;2023-02-13T09:22:00;98420.13;;;16.09;50.12
48778;BME280;34578;0.000;0.000;2023-02-13T09:27:00;98424.34;;;16.08;49.84
48778;BME280;34578;0.000;0.000;2023-02-13T09:32:01;98421.00;;;16.09;50.33
48778;BME280;34578;0.000;0.000;2023-02-13T09:37:01;98421.81;;;16.08;49.96
48778;BME280;34578;0.000;0.000;2023-02-13T09:42:04;98425.97;;;16.08;50.21
48778;BME280;34578;0.000;0.000;2023-02-13T09:47:26;98415.03;;;16.07;50.17
48778;BME280;34578;0.000;0.000;2023-02-13T09:52:32;98421.81;;;16.08;49.76
48778;BME280;34578;0.000;0.000;2023-02-13T09:57:36;98413.31;;;16.06;49.99
48778;BME280;34578;0.000;0.000;2023-02-13T10:18:49;98407.47;;;16.07;50.47
48778;BME280;34578;0.000;0.000;2023-02-13T10:23:57;98405.78;;;16.08;50.22
48778;BME280;34578;0.000;0.000;2023-02-13T10:29:05;98394.81;;;16.07;50.20
48778;BME280;34578;0.000;0.000;2023-02-13T10:34:32;98389.63;;;16.04;49.86
48778;BME280;34578;0.000;0.000;2023-02-13T10:39:34;98384.75;;;16.09;49.88
48778;BME280;34578;0.000;0.000;2023-02-13T10:50:24;98367.06;;;16.09;50.08
48778;BME280;34578;0.000;0.000;2023-02-13T11:00:56;98350.97;;;16.05;50.40
48778;BME280;34578;0.000;0.000;2023-02-13T11:05:59;98349.34;;;16.07;50.31
48778;BME280;34578;0.000;0.000;2023-02-13T11:11:31;98351.91;;;16.09;50.19
48778;BME280;34578;0.000;0.000;2023-02-13T11:16:49;98354.50;;;16.10;50.25
48778;BME280;34578;0.000;0.000;2023-02-13T11:21:58;98351.91;;;16.09;50.44
48778;BME280;34578;0.000;0.000;2023-02-13T11:27:02;98349.38;;;16.09;50.23
48778;BME280;34578;0.000;0.000;2023-02-13T11:37:23;98354.59;;;16.13;50.71
48778;BME280;34578;0.000;0.000;2023-02-13T11:42:33;98348.75;;;16.14;50.54
48778;BME280;34578;0.000;0.000;2023-02-13T11:47:43;98345.44;;;16.17;49.29
48778;BME280;34578;0.000;0.000;2023-02-13T11:52:51;98336.13;;;16.14;49.90
48778;BME280;34578;0.000;0.000;2023-02-13T11:58:23;98339.66;;;16.19;50.37
48778;BME280;34578;0.000;0.000;2023-02-13T12:03:30;98338.84;;;16.20;50.87
48778;BME280;34578;0.000;0.000;2023-02-13T12:08:36;98329.66;;;16.22;50.84
48778;BME280;34578;0.000;0.000;2023-02-13T12:13:37;98322.03;;;16.21;51.24
48778;BME280;34578;0.000;0.000;2023-02-13T12:18:45;98323.66;;;16.19;50.89
48778;BME280;34578;0.000;0.000;2023-02-13T12:23:58;98318.59;;;16.19;50.08
48778;BME280;34578;0.000;0.000;2023-02-13T12:39:33;98320.34;;;16.21;50.42
48778;BME280;34578;0.000;0.000;2023-02-13T12:44:43;98329.50;;;16.18;50.79
48778;BME280;34578;0.000;0.000;2023-02-13T13:15:53;98309.34;;;16.19;52.71
48778;BME280;34578;0.000;0.000;2023-02-13T13:31:36;98309.25;;;16.16;52.23
48778;BME280;34578;0.000;0.000;2023-02-13T13:52:33;98312.56;;;16.15;51.49
48778;BME280;34578;0.000;0.000;2023-02-13T14:07:41;98300.75;;;16.14;52.48
48778;BME280;34578;0.000;0.000;2023-02-13T14:12:50;98300.75;;;16.14;52.54
48778;BME280;34578;0.000;0.000;2023-02-13T14:18:21;98294.06;;;16.16;51.90
48778;BME280;34578;0.000;0.000;2023-02-13T14:28:35;98291.63;;;16.19;52.01
48778;BME280;34578;0.000;0.000;2023-02-13T14:33:36;98304.50;;;16.25;50.41
48778;BME280;34578;0.000;0.000;2023-02-13T14:38:36;98296.84;;;16.24;51.96
48778;BME280;34578;0.000;0.000;2023-02-13T14:43:50;98290.88;;;16.22;53.23
48778;BME280;34578;0.000;0.000;2023-02-13T14:49:18;98295.19;;;16.24;53.29
48778;BME280;34578;0.000;0.000;2023-02-13T14:54:24;98296.66;;;16.18;51.03
48778;BME280;34578;0.000;0.000;2023-02-13T14:59:28;98290.94;;;16.23;52.30
48778;BME280;34578;0.000;0.000;2023-02-13T15:04:41;98287.72;;;16.27;51.22
48778;BME280;34578;0.000;0.000;2023-02-13T15:09:49;98288.59;;;16.28;53.30
48778;BME280;34578;0.000;0.000;2023-02-13T15:14:50;98290.88;;;16.22;51.89
48778;BME280;34578;0.000;0.000;2023-02-13T15:19:53;98290.16;;;16.26;50.78
48778;BME280;34578;0.000;0.000;2023-02-13T15:24:54;98284.38;;;16.28;49.82
48778;BME280;34578;0.000;0.000;2023-02-13T15:30:00;98277.81;;;16.33;53.10
48778;BME280;34578;0.000;0.000;2023-02-13T15:35:34;98287.63;;;16.24;49.34
48778;BME280;34578;0.000;0.000;2023-02-13T15:40:40;98289.66;;;15.87;48.36
48778;BME280;34578;0.000;0.000;2023-02-13T15:45:42;98288.50;;;16.01;50.94
48778;BME280;34578;0.000;0.000;2023-02-13T15:50:43;98285.31;;;16.07;51.08
48778;BME280;34578;0.000;0.000;2023-02-13T15:55:55;98285.59;;;16.14;50.74
48778;BME280;34578;0.000;0.000;2023-02-13T16:01:03;98291.69;;;16.21;50.47
48778;BME280;34578;0.000;0.000;2023-02-13T16:06:06;98277.38;;;16.21;49.78
48778;BME280;34578;0.000;0.000;2023-02-13T16:16:16;98277.50;;;16.24;49.76
48778;BME280;34578;0.000;0.000;2023-02-13T16:21:21;98283.25;;;16.20;50.53
48778;BME280;34578;0.000;0.000;2023-02-13T16:26:22;98282.34;;;16.18;50.29
48778;BME280;34578;0.000;0.000;2023-02-13T16:31:23;98289.13;;;16.19;50.88
48778;BME280;34578;0.000;0.000;2023-02-13T16:36:29;98288.16;;;16.16;50.82
48778;BME280;34578;0.000;0.000;2023-02-13T16:41:31;98287.50;;;16.21;50.81
48778;BME280;34578;0.000;0.000;2023-02-13T16:51:43;98289.25;;;16.22;51.90
48778;BME280;34578;0.000;0.000;2023-02-13T16:56:49;98291.75;;;16.22;51.86
48778;BME280;34578;0.000;0.000;2023-02-13T17:02:14;98294.38;;;16.25;51.23
48778;BME280;34578;0.000;0.000;2023-02-13T17:07:23;98296.91;;;16.25;51.14
48778;BME280;34578;0.000;0.000;2023-02-13T17:12:25;98301.91;;;16.24;50.76
48778;BME280;34578;0.000;0.000;2023-02-13T17:17:28;98302.06;;;16.28;51.25
48778;BME280;34578;0.000;0.000;2023-02-13T17:22:34;98311.34;;;16.29;52.54
48778;BME280;34578;0.000;0.000;2023-02-13T17:27:36;98314.69;;;16.28;52.22
48778;BME280;34578;0.000;0.000;2023-02-13T17:32:36;98317.19;;;16.27;51.67
48778;BME280;34578;0.000;0.000;2023-02-13T17:37:37;98320.56;;;16.27;51.57
48778;BME280;34578;0.000;0.000;2023-02-13T17:42:39;98326.38;;;16.25;51.69
48778;BME280;34578;0.000;0.000;2023-02-13T17:47:40;98328.13;;;16.27;51.20
48778;BME280;34578;0.000;0.000;2023-02-13T17:52:41;98328.88;;;16.25;51.14
48778;BME280;34578;0.000;0.000;2023-02-13T17:57:41;98339.88;;;16.25;51.79
48778;BME280;34578;0.000;0.000;2023-02-13T18:02:42;98341.59;;;16.26;51.36
48778;BME280;34578;0.000;0.000;2023-02-13T18:07:43;98341.50;;;16.23;52.33
48778;BME280;34578;0.000;0.000;2023-02-13T18:12:45;98327.25;;;16.25;52.11
48778;BME280;34578;0.000;0.000;2023-02-13T18:17:46;98334.81;;;16.25;51.88
48778;BME280;34578;0.000;0.000;2023-02-13T18:22:47;98339.81;;;16.24;52.29
48778;BME280;34578;0.000;0.000;2023-02-13T18:27:50;98328.84;;;16.23;51.85
48778;BME280;34578;0.000;0.000;2023-02-13T18:32:53;98333.09;;;16.24;51.67
48778;BME280;34578;0.000;0.000;2023-02-13T18:37:54;98329.81;;;16.27;51.75
48778;BME280;34578;0.000;0.000;2023-02-13T18:42:54;98324.72;;;16.25;52.53
48778;BME280;34578;0.000;0.000;2023-02-13T18:47:55;98328.03;;;16.24;52.25
48778;BME280;34578;0.000;0.000;2023-02-13T18:52:55;98328.84;;;16.23;52.25
48778;BME280;34578;0.000;0.000;2023-02-13T18:57:55;98339.00;;;16.25;52.12
48778;BME280;34578;0.000;0.000;2023-02-13T19:02:58;98332.97;;;16.21;52.07
48778;BME280;34578;0.000;0.000;2023-02-13T19:07:58;98333.91;;;16.23;52.02
48778;BME280;34578;0.000;0.000;2023-02-13T19:12:59;98337.34;;;16.25;52.02
48778;BME280;34578;0.000;0.000;2023-02-13T19:17:59;98334.81;;;16.25;52.25
48778;BME280;34578;0.000;0.000;2023-02-13T19:23:00;98326.44;;;16.26;52.17
48778;BME280;34578;0.000;0.000;2023-02-13T19:28:00;98338.16;;;16.24;52.37
48778;BME280;34578;0.000;0.000;2023-02-13T19:33:00;98333.09;;;16.24;52.18
48778;BME280;34578;0.000;0.000;2023-02-13T19:38:01;98331.38;;;16.23;52.13
48778;BME280;34578;0.000;0.000;2023-02-13T19:43:01;98325.53;;;16.24;51.75
48778;BME280;34578;0.000;0.000;2023-02-13T19:48:01;98343.22;;;16.24;51.96
48778;BME280;34578;0.000;0.000;2023-02-13T19:53:02;98334.72;;;16.22;52.12
48778;BME280;34578;0.000;0.000;2023-02-13T19:58:03;98339.78;;;16.22;51.79
48778;BME280;34578;0.000;0.000;2023-02-13T20:03:04;98339.78;;;16.22;51.95
48778;BME280;34578;0.000;0.000;2023-02-13T20:08:04;98339.78;;;16.22;51.82
48778;BME280;34578;0.000;0.000;2023-02-13T20:13:05;98331.25;;;16.20;51.88
48778;BME280;34578;0.000;0.000;2023-02-13T20:18:05;98331.31;;;16.22;52.15
48778;BME280;34578;0.000;0.000;2023-02-13T20:23:08;98329.75;;;16.25;51.17
48778;BME280;34578;0.000;0.000;2023-02-13T20:28:08;98340.72;;;16.26;51.40
48778;BME280;34578;0.000;0.000;2023-02-13T20:33:10;98339.88;;;16.25;51.80
48778;BME280;34578;0.000;0.000;2023-02-13T20:38:10;98332.34;;;16.27;52.73
48778;BME280;34578;0.000;0.000;2023-02-13T20:43:12;98335.66;;;16.26;52.97
48778;BME280;34578;0.000;0.000;2023-02-13T20:48:12;98329.75;;;16.25;52.33
48778;BME280;34578;0.000;0.000;2023-02-13T20:53:13;98339.88;;;16.25;52.48
48778;BME280;34578;0.000;0.000;2023-02-13T20:58:13;98341.59;;;16.26;52.62
48778;BME280;34578;0.000;0.000;2023-02-13T21:03:13;98337.41;;;16.27;52.41
48778;BME280;34578;0.000;0.000;2023-02-13T21:08:14;98344.94;;;16.25;52.17
48778;BME280;34578;0.000;0.000;2023-02-13T21:13:14;98339.88;;;16.25;51.76
48778;BME280;34578;0.000;0.000;2023-02-13T21:18:14;98337.56;;;16.31;50.97
48778;BME280;34578;0.000;0.000;2023-02-13T21:23:15;98328.88;;;16.25;49.09
48778;BME280;34578;0.000;0.000;2023-02-13T21:28:15;98332.50;;;16.31;51.37
48778;BME280;34578;0.000;0.000;2023-02-13T21:33:15;98333.41;;;16.33;51.05
48778;BME280;34578;0.000;0.000;2023-02-13T21:38:16;98329.09;;;16.31;51.14
48778;BME280;34578;0.000;0.000;2023-02-13T21:43:18;98329.84;;;16.28;51.84
48778;BME280;34578;0.000;0.000;2023-02-13T21:48:18;98320.56;;;16.27;52.84
48778;BME280;34578;0.000;0.000;2023-02-13T21:53:19;98315.44;;;16.26;52.42
48778;BME280;34578;0.000;0.000;2023-02-13T21:58:19;98330.72;;;16.29;53.29
48778;BME280;34578;0.000;0.000;2023-02-13T22:03:19;98338.19;;;16.26;54.61
48778;BME280;34578;0.000;0.000;2023-02-13T22:08:20;98332.34;;;16.27;54.64
48778;BME280;34578;0.000;0.000;2023-02-13T22:13:20;98326.50;;;16.28;53.74
48778;BME280;34578;0.000;0.000;2023-02-13T22:18:21;98327.31;;;16.28;52.98
48778;BME280;34578;0.000;0.000;2023-02-13T22:23:21;98333.19;;;16.27;53.73
48778;BME280;34578;0.000;0.000;2023-02-13T22:28:21;98331.53;;;16.28;53.32
48778;BME280;34578;0.000;0.000;2023-02-13T22:33:22;98333.13;;;16.26;53.75
48778;BME280;34578;0.000;0.000;2023-02-13T22:38:22;98328.13;;;16.27;53.27
48778;BME280;34578;0.000;0.000;2023-02-13T22:43:23;98334.91;;;16.28;53.80
48778;BME280;34578;0.000;0.000;2023-02-13T22:48:23;98334.88;;;16.27;53.63
48778;BME280;34578;0.000;0.000;2023-02-13T22:53:23;98341.59;;;16.26;53.83
48778;BME280;34578;0.000;0.000;2023-02-13T22:58:24;98341.59;;;16.26;54.03
48778;BME280;34578;0.000;0.000;2023-02-13T23:03:24;98342.47;;;16.27;53.75
48778;BME280;34578;0.000;0.000;2023-02-13T23:08:25;98341.59;;;16.26;53.88
48778;BME280;34578;0.000;0.000;2023-02-13T23:13:25;98339.13;;;16.28;53.74
48778;BME280;34578;0.000;0.000;2023-02-13T23:18:25;98341.50;;;16.23;54.75
48778;BME280;34578;0.000;0.000;2023-02-13T23:23:26;98339.97;;;16.28;55.52
48778;BME280;34578;0.000;0.000;2023-02-13T23:28:26;98339.88;;;16.25;55.03
48778;BME280;34578;0.000;0.000;2023-02-13T23:33:27;98328.94;;;16.26;54.13
48778;BME280;34578;0.000;0.000;2023-02-13T23:38:27;98336.53;;;16.26;54.05
48778;BME280;34578;0.000;0.000;2023-02-13T23:43:28;98328.06;;;16.26;53.79
48778;BME280;34578;0.000;0.000;2023-02-13T23:48:28;98329.75;;;16.25;53.46
48778;BME280;34578;0.000;0.000;2023-02-13T23:53:28;98323.91;;;16.26;53.77
48778;BME280;34578;0.000;0.000;2023-02-13T23:58:29;98323.00;;;16.24;54.01
